Euless, TX (76040)

2:08 AM CST on December 11, 2016 (GMT -0600)
Oakwood Terrace North | | Change Station

Elev 582 ft 32.83 °N, 97.12 °W | Updated 18 hours ago

Overcast
Overcast
74 °F
Feels Like 74 °F
N
12
Wind Variable Wind from SSE
Gusts 18 mph

Today
High -- | Low -- °F
--% Chance of Precip.
Yesterday
High -- | Low -- °F
Precip. -- in
Pressure 30.05 in
Visibility 10.0 miles
Clouds Overcast 1500 ft
Dew Point 70 °F
Humidity 86%
Rainfall 0.00 in
Snow Depth Not available.
7:21 AM 5:22 PM
Waxing Gibbous, 90% visible
METAR KDFW 110753Z 18017G26KT 10SM -RA OVC015 09/05 A3005 RMK AO2 PK WND 18026/0749 RAB38 SLP175 P0000 T00940050
Pressure 30.05 in
Visibility 10.0 miles
Clouds Overcast 1500 ft
Dew Point 70 °F
Humidity 86%
Rainfall 0.00 in
Snow Depth Not available.
7:21 AM 5:22 PM
Waxing Gibbous, 90% visible
METAR KDFW 110753Z 18017G26KT 10SM -RA OVC015 09/05 A3005 RMK AO2 PK WND 18026/0749 RAB38 SLP175 P0000 T00940050

10-Day Weather Forecast

Almanac

Astronomy

Dec. 11, 2016 Rise Set
Actual Time
Civil Twilight
Nautical Twilight
Astronomical Twilight
Moon
Length of Visible Light
Length of Day
Tomorrow will be .
, % of the Moon is Illuminated

Today's Extremes

State Highs State Lows

Community

WunderPhotos

Upload Photos

1,956,706 photos uploaded!

WunderBlog® & News

Nearby

Air Quality

  Air Quality AQ Index Pollutant
Not available.

Snow Depth

Station Depth Elevation

Earthquake Activity

City Distance Mag. Time & Date
Minimum magnitude displayed is 2.5.

Coastal Water Temperatures

Place Temperature

Stations

Nearby Weather Stations

Station Location Temp. Windchill Dew Point Humidity Wind Precip. Elev Updated Type
                   

Watches & Warnings

There are currently no watches in effect.